createdAt,value
2023-01-06T00:01:28.966Z,100533.56
2023-01-06T00:03:59.487Z,100530.97
2023-01-06T00:06:33.804Z,100536.56
2023-01-06T00:09:05.307Z,100529.56
2023-01-06T00:11:33.853Z,100531.53
2023-01-06T00:14:03.411Z,100532.72
2023-01-06T00:16:31.800Z,100536.50
2023-01-06T00:19:01.333Z,100544.81
2023-01-06T00:21:30.520Z,100545.06
2023-01-06T00:23:58.718Z,100554.06
2023-01-06T00:26:26.843Z,100559.69
2023-01-06T00:28:55.780Z,100567.88
2023-01-06T00:31:25.291Z,100578.75
2023-01-06T00:33:53.700Z,100575.41
2023-01-06T00:36:22.539Z,100582.63
2023-01-06T00:38:52.227Z,100569.28
2023-01-06T00:41:37.905Z,100575.75
2023-01-06T00:44:06.716Z,100584.06
2023-01-06T00:46:36.320Z,100583.28
2023-01-06T00:49:07.153Z,100582.56
2023-01-06T00:51:36.824Z,100580.09
2023-01-06T00:54:05.340Z,100589.16
2023-01-06T00:56:33.721Z,100597.31
2023-01-06T00:59:03.773Z,100618.91
2023-01-06T01:01:32.053Z,100615.38
2023-01-06T01:04:01.847Z,100611.09
2023-01-06T01:06:30.073Z,100615.72
2023-01-06T01:09:00.181Z,100619.50
2023-01-06T01:11:46.273Z,100621.31
2023-01-06T01:14:15.564Z,100633.97
2023-01-06T01:16:43.663Z,100627.88
2023-01-06T01:19:15.038Z,100631.53
2023-01-06T01:21:43.719Z,100634.34
2023-01-06T01:24:12.133Z,100633.47
2023-01-06T01:26:40.704Z,100631.88
2023-01-06T01:29:11.231Z,100635.63
2023-01-06T01:31:39.394Z,100642.09
2023-01-06T01:34:08.080Z,100640.47
2023-01-06T01:36:37.532Z,100646.81
2023-01-06T01:39:05.637Z,100630.91
2023-01-06T01:41:33.972Z,100635.44
2023-01-06T01:44:03.789Z,100647.25
2023-01-06T01:46:40.695Z,100652.63
2023-01-06T01:49:15.783Z,100670.69
2023-01-06T01:51:49.250Z,100668.97
2023-01-06T01:54:22.661Z,100679.81
2023-01-06T01:56:54.739Z,100689.78
2023-01-06T01:59:26.876Z,100703.22
2023-01-06T02:01:55.768Z,100697.97
2023-01-06T02:04:27.300Z,100693.66
2023-01-06T02:06:57.277Z,100699.16
2023-01-06T02:09:30.506Z,100692.19
2023-01-06T02:12:00.909Z,100695.81
2023-01-06T02:14:30.448Z,100693.22
2023-01-06T02:17:15.253Z,100700.53
2023-01-06T02:20:33.941Z,100690.78
2023-01-06T02:23:23.354Z,100691.75
2023-01-06T02:26:29.588Z,100690.03
2023-01-06T02:29:27.802Z,100686.59
2023-01-06T02:32:06.365Z,100685.81
2023-01-06T02:34:44.679Z,100679.72
2023-01-06T02:37:26.073Z,100684.22
2023-01-06T02:40:11.137Z,100683.34
2023-01-06T02:42:46.225Z,100686.16
2023-01-06T02:45:22.620Z,100688.94
2023-01-06T02:48:02.311Z,100682.84
2023-01-06T02:50:40.994Z,100683.03
2023-01-06T02:53:19.115Z,100689.34
2023-01-06T02:55:49.538Z,100684.06
2023-01-06T02:58:27.700Z,100686.75
2023-01-06T03:01:01.822Z,100690.53
2023-01-06T03:03:36.837Z,100695.13
2023-01-06T03:06:10.216Z,100694.25
2023-01-06T03:08:39.837Z,100692.53
2023-01-06T03:11:08.301Z,100695.34
2023-01-06T03:13:44.463Z,100698.97
2023-01-06T03:16:12.899Z,100697.28
2023-01-06T03:18:47.710Z,100697.50
2023-01-06T03:21:21.936Z,100706.50
2023-01-06T03:23:50.524Z,100702.06
2023-01-06T03:26:18.627Z,100705.84
2023-01-06T03:28:46.775Z,100717.53
2023-01-06T03:31:21.636Z,100711.31
2023-01-06T03:34:03.170Z,100715.94
2023-01-06T03:36:42.985Z,100720.44
2023-01-06T03:39:18.984Z,100717.88
2023-01-06T03:42:09.312Z,100719.75
2023-01-06T03:44:47.732Z,100713.53
2023-01-06T03:47:22.337Z,100718.06
2023-01-06T03:49:57.262Z,100725.34
2023-01-06T03:52:32.081Z,100716.56
2023-01-06T03:55:07.496Z,100725.47
2023-01-06T03:57:39.063Z,100719.44
2023-01-06T04:00:11.289Z,100728.34
2023-01-06T04:02:43.031Z,100726.59
2023-01-06T04:05:17.650Z,100736.47
2023-01-06T04:07:46.591Z,100739.28
2023-01-06T04:10:19.579Z,100742.06
2023-01-06T04:12:47.928Z,100742.06
2023-01-06T04:15:18.384Z,100744.84
2023-01-06T04:17:47.621Z,100747.63
2023-01-06T04:20:19.591Z,100739.69
2023-01-06T04:22:47.959Z,100750.50
2023-01-06T04:25:16.601Z,100750.44
2023-01-06T04:27:44.858Z,100746.97
2023-01-06T04:30:14.543Z,100741.72
2023-01-06T04:32:43.354Z,100746.31
2023-01-06T04:35:12.033Z,100750.81
2023-01-06T04:37:41.553Z,100747.19
2023-01-06T04:40:11.499Z,100753.28
2023-01-06T04:42:56.761Z,100751.28
2023-01-06T04:45:25.963Z,100758.72
2023-01-06T04:47:54.609Z,100761.66
2023-01-06T04:50:22.733Z,100761.88
2023-01-06T04:52:52.177Z,100764.69
2023-01-06T04:55:20.741Z,100766.78
2023-01-06T04:57:48.868Z,100774.22
2023-01-06T05:00:18.483Z,100784.09
2023-01-06T05:02:47.431Z,100784.97
2023-01-06T05:05:16.030Z,100798.50
2023-01-06T05:07:45.319Z,100821.09
2023-01-06T05:10:14.929Z,100817.00
2023-01-06T05:12:48.413Z,100822.47
2023-01-06T05:15:16.807Z,100825.38
2023-01-06T05:17:44.912Z,100835.47
2023-01-06T05:20:13.123Z,100824.28
2023-01-06T05:22:41.169Z,100830.84
2023-01-06T05:25:09.910Z,100822.66
2023-01-06T05:27:39.468Z,100816.22
2023-01-06T05:30:08.911Z,100817.06
2023-01-06T05:32:37.037Z,100815.25
2023-01-06T05:35:05.502Z,100821.59
2023-01-06T05:37:36.801Z,100815.44
2023-01-06T05:40:05.385Z,100816.66
2023-01-06T05:42:33.685Z,100829.22
2023-01-06T05:45:03.348Z,100832.13
2023-01-06T05:47:31.476Z,100840.41
2023-01-06T05:49:59.701Z,100843.22
2023-01-06T05:52:27.800Z,100844.38
2023-01-06T05:54:55.987Z,100854.41
2023-01-06T05:57:24.118Z,100860.00
2023-01-06T05:59:52.253Z,100860.22
2023-01-06T06:02:21.977Z,100865.78
2023-01-06T06:04:50.321Z,100869.69
2023-01-06T06:07:18.544Z,100866.25
2023-01-06T06:09:46.651Z,100863.75
2023-01-06T06:12:14.931Z,100853.34
2023-01-06T06:14:43.054Z,100860.53
2023-01-06T06:17:11.195Z,100857.19
2023-01-06T06:19:40.891Z,100855.69
2023-01-06T06:22:10.656Z,100866.66
2023-01-06T06:24:41.529Z,100860.63
2023-01-06T06:27:13.043Z,100866.22
2023-01-06T06:29:41.422Z,100868.25
2023-01-06T06:32:10.724Z,100862.97
2023-01-06T06:34:40.235Z,100878.34
2023-01-06T06:37:08.283Z,100870.50
2023-01-06T06:39:36.740Z,100876.94
2023-01-06T06:42:05.458Z,100885.13
2023-01-06T06:44:35.121Z,100887.03
2023-01-06T06:47:03.234Z,100889.06
2023-01-06T06:49:31.271Z,100892.81
2023-01-06T06:52:00.796Z,100894.72
2023-01-06T06:54:28.933Z,100899.47
2023-01-06T06:56:57.178Z,100903.00
2023-01-06T06:59:25.392Z,100899.69
2023-01-06T07:01:54.056Z,100906.13
2023-01-06T07:04:22.247Z,100902.66
2023-01-06T07:06:53.310Z,100911.66
2023-01-06T07:09:22.797Z,100911.88
2023-01-06T07:11:50.951Z,100915.53
2023-01-06T07:14:19.640Z,100924.56
2023-01-06T07:16:50.230Z,100930.09
2023-01-06T07:19:18.724Z,100937.41
2023-01-06T07:21:47.197Z,100941.06
2023-01-06T07:24:15.236Z,100943.00
2023-01-06T07:26:44.783Z,100935.91
2023-01-06T07:29:13.083Z,100939.56
2023-01-06T07:31:41.181Z,100938.00
2023-01-06T07:34:09.520Z,100941.56
2023-01-06T07:36:37.603Z,100945.28
2023-01-06T07:39:06.037Z,100938.09
2023-01-06T07:41:34.373Z,100939.16
2023-01-06T07:44:06.194Z,100940.00
2023-01-06T07:46:34.450Z,100950.84
2023-01-06T07:49:02.530Z,100937.53
2023-01-06T07:51:30.933Z,100933.97
2023-01-06T07:53:59.015Z,100938.56
2023-01-06T07:56:27.113Z,100940.41
2023-01-06T07:58:58.034Z,100952.97
2023-01-06T08:01:27.789Z,100945.88
2023-01-06T08:03:56.081Z,100962.94
2023-01-06T08:06:24.217Z,100968.41
2023-01-06T08:08:52.522Z,100967.53
2023-01-06T08:11:20.753Z,100965.03
2023-01-06T08:13:48.864Z,100964.09
2023-01-06T08:16:17.089Z,100957.00
2023-01-06T08:18:46.589Z,100962.47
2023-01-06T08:21:14.801Z,100951.06
2023-01-06T08:23:42.859Z,100940.34
2023-01-06T08:26:13.613Z,100928.84
2023-01-06T08:28:42.259Z,100930.56
2023-01-06T08:31:11.043Z,100937.88
2023-01-06T08:33:39.295Z,100925.38
2023-01-06T08:36:10.841Z,100925.38
2023-01-06T08:38:39.287Z,100923.66
2023-01-06T08:41:08.613Z,100930.75
2023-01-06T08:43:38.634Z,100919.25
2023-01-06T08:46:09.763Z,100921.94
2023-01-06T08:48:38.287Z,100926.44
2023-01-06T08:51:11.292Z,100921.19
2023-01-06T08:53:41.368Z,100923.00
2023-01-06T08:56:14.036Z,100922.16
2023-01-06T08:58:42.403Z,100918.59
2023-01-06T09:01:18.180Z,100926.66
2023-01-06T09:03:48.905Z,100928.38
2023-01-06T09:06:19.263Z,100936.53
2023-01-06T09:08:48.573Z,100948.97
2023-01-06T09:11:18.066Z,100945.44
2023-01-06T09:13:46.820Z,100951.75
2023-01-06T09:16:15.168Z,100953.50
2023-01-06T09:18:49.455Z,100963.34
2023-01-06T09:21:23.929Z,100971.41
2023-01-06T09:23:52.496Z,100975.81
2023-01-06T09:26:22.069Z,100968.72
2023-01-06T09:28:50.309Z,100959.91
2023-01-06T09:31:19.250Z,100966.13
2023-01-06T09:33:50.268Z,100955.41
2023-01-06T09:36:19.834Z,100958.19
2023-01-06T09:38:48.015Z,100958.19
2023-01-06T09:41:44.002Z,100963.56
2023-01-06T09:44:18.509Z,100959.06
2023-01-06T09:46:51.036Z,100962.66
2023-01-06T09:49:28.737Z,100959.13
2023-01-06T09:52:02.623Z,100958.19
2023-01-06T09:54:34.605Z,100962.78
2023-01-06T09:57:11.765Z,100966.25
2023-01-06T09:59:49.381Z,100953.88
2023-01-06T10:02:26.335Z,100968.03
2023-01-06T10:04:54.729Z,100957.31
2023-01-06T10:07:30.923Z,100957.22
2023-01-06T10:10:17.604Z,100959.91
2023-01-06T10:12:56.819Z,100953.69
2023-01-06T10:15:37.190Z,100953.69
2023-01-06T10:18:19.518Z,100949.19
2023-01-06T10:20:55.822Z,100952.72
2023-01-06T10:23:50.853Z,100950.16
2023-01-06T10:26:28.233Z,100942.09
2023-01-06T10:29:02.562Z,100936.63
2023-01-06T10:31:35.508Z,100944.69
2023-01-06T10:34:04.562Z,100941.13
2023-01-06T10:36:34.344Z,100944.56
2023-01-06T10:39:07.188Z,100942.75
2023-01-06T10:41:45.235Z,100938.25
2023-01-06T10:44:15.289Z,100935.34
2023-01-06T10:46:45.339Z,100939.75
2023-01-06T10:49:16.841Z,100933.44
2023-01-06T10:51:52.963Z,100930.69
2023-01-06T10:54:28.439Z,100933.34
2023-01-06T10:57:02.631Z,100933.25
2023-01-06T10:59:31.624Z,100931.44
2023-01-06T11:02:02.492Z,100936.69
2023-01-06T11:04:30.761Z,100926.06
2023-01-06T11:07:00.987Z,100934.88
2023-01-06T11:09:40.017Z,100927.69
2023-01-06T11:12:12.891Z,100921.34
2023-01-06T11:14:42.370Z,100924.78
2023-01-06T11:17:15.567Z,100922.91
2023-01-06T11:19:44.156Z,100928.16
2023-01-06T11:22:35.051Z,100913.66
2023-01-06T11:25:23.976Z,100910.03
2023-01-06T11:28:17.898Z,100909.91
2023-01-06T11:30:52.691Z,100913.28
2023-01-06T11:33:23.604Z,100916.72
2023-01-06T11:35:52.604Z,100905.97
2023-01-06T11:38:22.854Z,100912.88
2023-01-06T11:40:54.837Z,100908.31
2023-01-06T11:43:27.420Z,100917.88
2023-01-06T11:46:00.203Z,100916.91
2023-01-06T11:48:31.963Z,100914.00
2023-01-06T11:51:03.026Z,100912.09
2023-01-06T11:53:31.907Z,100915.44
2023-01-06T11:56:03.522Z,100910.81
2023-01-06T11:58:42.153Z,100910.59
2023-01-06T12:01:16.125Z,100909.56
2023-01-06T12:03:47.195Z,100911.16
2023-01-06T12:06:25.746Z,100902.03
2023-01-06T12:09:02.016Z,100891.19
2023-01-06T12:11:43.753Z,100890.16
2023-01-06T12:14:27.430Z,100892.59
2023-01-06T12:17:05.614Z,100879.75
2023-01-06T12:19:38.847Z,100868.03
2023-01-06T12:22:10.792Z,100874.91
2023-01-06T12:24:41.079Z,100864.78
2023-01-06T12:27:21.455Z,100868.16
2023-01-06T12:29:53.338Z,100867.06
2023-01-06T12:32:29.081Z,100860.63
2023-01-06T12:35:04.713Z,100870.31
2023-01-06T12:37:40.332Z,100865.81
2023-01-06T12:40:16.915Z,100862.91
2023-01-06T12:42:54.389Z,100870.72
2023-01-06T12:45:35.188Z,100866.22
2023-01-06T12:48:12.982Z,100869.56
2023-01-06T12:50:46.201Z,100868.38
2023-01-06T12:53:21.143Z,100861.06
2023-01-06T12:56:03.282Z,100844.75
2023-01-06T12:58:42.904Z,100853.56
2023-01-06T13:01:20.151Z,100851.59
2023-01-06T13:04:05.632Z,100853.31
2023-01-06T13:06:47.143Z,100846.00
2023-01-06T13:09:38.218Z,100847.72
2023-01-06T13:12:33.492Z,100850.34
2023-01-06T13:15:15.882Z,100847.66
2023-01-06T13:17:51.900Z,100851.19
2023-01-06T13:20:24.977Z,100843.88
2023-01-06T13:23:06.690Z,100848.38
2023-01-06T13:25:49.855Z,100845.69
2023-01-06T13:28:28.751Z,100851.06
2023-01-06T13:31:18.203Z,100865.38
2023-01-06T13:34:19.587Z,100862.69
2023-01-06T13:37:16.919Z,100862.56
2023-01-06T13:39:48.296Z,100863.44
2023-01-06T13:42:23.176Z,100867.09
2023-01-06T13:44:51.638Z,100870.75
2023-01-06T13:47:24.747Z,100868.06
2023-01-06T13:49:54.049Z,100866.34
2023-01-06T13:52:25.897Z,100860.22
2023-01-06T13:55:01.430Z,100865.59
2023-01-06T13:57:38.799Z,100853.09
2023-01-06T14:00:19.592Z,100856.75
2023-01-06T14:03:22.932Z,100853.31
2023-01-06T14:05:56.657Z,100841.72
2023-01-06T14:08:27.869Z,100846.22
2023-01-06T14:11:03.280Z,100844.53
2023-01-06T14:13:35.637Z,100841.09
2023-01-06T14:16:09.794Z,100837.53
2023-01-06T14:18:46.909Z,100835.72
2023-01-06T14:21:28.786Z,100830.34
2023-01-06T14:24:04.117Z,100833.88
2023-01-06T14:26:58.387Z,100838.28
2023-01-06T14:29:46.019Z,100838.28
2023-01-06T14:32:47.183Z,100837.44
2023-01-06T14:35:23.880Z,100839.16
2023-01-06T14:37:56.419Z,100837.44
2023-01-06T14:40:29.100Z,100843.66
2023-01-06T14:43:03.105Z,100846.47
2023-01-06T14:45:39.555Z,100841.94
2023-01-06T14:48:17.605Z,100846.47
2023-01-06T14:50:51.366Z,100839.38
2023-01-06T14:53:26.194Z,100839.38
2023-01-06T14:55:55.763Z,100844.81
2023-01-06T14:58:29.489Z,100840.34
2023-01-06T15:01:02.887Z,100844.94
2023-01-06T15:03:33.026Z,100845.16
2023-01-06T15:06:14.111Z,100846.03
2023-01-06T15:08:45.292Z,100850.53
2023-01-06T15:11:21.333Z,100843.44
2023-01-06T15:13:49.471Z,100841.72
2023-01-06T15:16:29.055Z,100838.19
2023-01-06T15:18:57.533Z,100845.38
2023-01-06T15:21:27.283Z,100845.50
2023-01-06T15:23:55.959Z,100837.53
2023-01-06T15:26:27.701Z,100833.13
2023-01-06T15:29:01.963Z,100834.94
2023-01-06T15:31:33.833Z,100840.44
2023-01-06T15:34:06.323Z,100837.00
2023-01-06T15:36:40.724Z,100833.44
2023-01-06T15:39:14.622Z,100835.28
2023-01-06T15:41:43.897Z,100832.72
2023-01-06T15:44:24.320Z,100824.72
2023-01-06T15:46:56.078Z,100829.25
2023-01-06T15:49:31.276Z,100831.19
2023-01-06T15:52:04.597Z,100831.28
2023-01-06T15:54:35.858Z,100836.78
2023-01-06T15:57:16.281Z,100840.44
2023-01-06T15:59:54.945Z,100842.25
2023-01-06T16:02:26.313Z,100839.69
2023-01-06T16:04:54.777Z,100838.78
2023-01-06T16:07:35.839Z,100847.94
2023-01-06T16:10:04.391Z,100849.00
2023-01-06T16:12:35.491Z,100854.38
2023-01-06T16:15:37.258Z,100853.63
2023-01-06T16:18:07.275Z,100853.75
2023-01-06T16:20:35.686Z,100850.28
2023-01-06T16:23:05.447Z,100848.56
2023-01-06T16:25:35.951Z,100844.28
2023-01-06T16:28:06.054Z,100852.31
2023-01-06T16:30:36.939Z,100856.94
2023-01-06T16:33:05.792Z,100864.16
2023-01-06T16:35:35.976Z,100857.13
2023-01-06T16:38:11.403Z,100866.16
2023-01-06T16:40:39.614Z,100860.78
2023-01-06T16:43:09.217Z,100864.44
2023-01-06T16:45:40.245Z,100862.94
2023-01-06T16:48:08.616Z,100862.94
2023-01-06T16:50:41.450Z,100864.88
2023-01-06T16:53:16.708Z,100855.97
2023-01-06T16:55:45.664Z,100861.34
2023-01-06T16:58:18.240Z,100861.53
2023-01-06T17:00:51.831Z,100863.44
2023-01-06T17:03:22.732Z,100867.97
2023-01-06T17:05:51.845Z,100865.28
2023-01-06T17:08:25.781Z,100863.56
2023-01-06T17:10:53.936Z,100854.31
2023-01-06T17:13:42.426Z,100845.13
2023-01-06T17:16:16.646Z,100847.94
2023-01-06T17:18:51.954Z,100843.63
2023-01-06T17:21:22.537Z,100843.75
2023-01-06T17:23:55.720Z,100850.09
2023-01-06T17:26:25.050Z,100854.72
2023-01-06T17:28:55.272Z,100857.53
2023-01-06T17:31:34.800Z,100856.78
2023-01-06T17:34:11.895Z,100854.06
2023-01-06T17:36:41.839Z,100850.63
2023-01-06T17:39:22.382Z,100855.34
2023-01-06T17:41:53.106Z,100852.84
2023-01-06T17:44:30.460Z,100852.94
2023-01-06T17:46:59.293Z,100847.84
2023-01-06T17:49:36.716Z,100858.78
2023-01-06T17:52:16.347Z,100853.34
2023-01-06T17:55:10.030Z,100850.94
2023-01-06T17:57:40.180Z,100863.50
2023-01-06T18:00:20.768Z,100861.94
2023-01-06T18:02:54.094Z,100871.81
2023-01-06T18:06:04.052Z,100866.59
2023-01-06T18:08:33.743Z,100865.38
2023-01-06T18:11:18.712Z,100873.72
2023-01-06T18:13:50.962Z,100861.97
2023-01-06T18:16:29.109Z,100864.31
2023-01-06T18:19:19.967Z,100869.59
2023-01-06T18:21:49.884Z,100878.41
2023-01-06T18:24:23.283Z,100878.91
2023-01-06T18:26:55.954Z,100879.16
2023-01-06T18:29:27.096Z,100874.78
2023-01-06T18:31:55.779Z,100862.28
2023-01-06T18:34:32.086Z,100866.72
2023-01-06T18:37:02.327Z,100866.72
2023-01-06T18:39:36.526Z,100861.69
2023-01-06T18:42:27.650Z,100882.56
2023-01-06T18:45:19.255Z,100884.91
2023-01-06T18:47:56.218Z,100879.25
2023-01-06T18:50:31.784Z,100875.34
2023-01-06T18:53:02.752Z,100882.81
2023-01-06T18:55:43.516Z,100876.31
2023-01-06T18:58:41.242Z,100882.19
2023-01-06T19:01:17.800Z,100875.31
2023-01-06T19:03:58.302Z,100876.75
2023-01-06T19:06:39.543Z,100873.56
2023-01-06T19:09:30.035Z,100888.28
2023-01-06T19:12:10.571Z,100888.16
2023-01-06T19:14:42.868Z,100878.22
2023-01-06T19:17:28.738Z,100874.66
2023-01-06T19:19:58.196Z,100875.50
2023-01-06T19:22:28.433Z,100875.50
2023-01-06T19:25:03.498Z,100870.72
2023-01-06T19:27:45.661Z,100864.81
2023-01-06T19:30:38.532Z,100847.97
2023-01-06T19:33:39.401Z,100845.34
2023-01-06T19:36:38.774Z,100839.22
2023-01-06T19:39:33.099Z,100843.44
2023-01-06T19:43:16.674Z,100835.13
2023-01-06T19:45:45.953Z,100842.56
2023-01-06T19:48:22.630Z,100851.88
2023-01-06T19:50:51.342Z,100845.94
2023-01-06T19:53:32.881Z,100849.56
2023-01-06T19:56:12.892Z,100841.66
2023-01-06T19:58:42.717Z,100840.53
2023-01-06T20:01:15.048Z,100837.16
2023-01-06T20:03:45.941Z,100834.31
2023-01-06T20:06:16.694Z,100834.88
2023-01-06T20:08:45.223Z,100846.28
2023-01-06T20:11:13.573Z,100845.41
2023-01-06T20:13:43.113Z,100838.44
2023-01-06T20:16:12.709Z,100836.59
2023-01-06T20:18:40.915Z,100838.56
2023-01-06T20:21:10.270Z,100842.56
2023-01-06T20:23:38.500Z,100855.94
2023-01-06T20:26:06.926Z,100855.22
2023-01-06T20:28:37.996Z,100864.44
2023-01-06T20:31:09.999Z,100855.88
2023-01-06T20:33:38.215Z,100856.13
2023-01-06T20:36:08.112Z,100868.69
2023-01-06T20:38:36.722Z,100859.69
2023-01-06T20:41:05.361Z,100857.59
2023-01-06T20:43:33.449Z,100853.06
2023-01-06T20:46:01.779Z,100861.44
2023-01-06T20:48:31.821Z,100859.84
2023-01-06T20:51:01.376Z,100856.69
2023-01-06T20:53:29.742Z,100850.28
2023-01-06T20:55:58.044Z,100848.72
2023-01-06T20:58:27.493Z,100859.91
2023-01-06T21:00:55.594Z,100853.22
2023-01-06T21:03:23.810Z,100854.31
2023-01-06T21:05:54.238Z,100851.03
2023-01-06T21:08:23.456Z,100840.59
2023-01-06T21:10:52.071Z,100848.25
2023-01-06T21:13:23.933Z,100849.63
2023-01-06T21:15:52.315Z,100845.63
2023-01-06T21:18:22.984Z,100846.97
2023-01-06T21:20:51.219Z,100847.13
2023-01-06T21:23:20.751Z,100844.94
2023-01-06T21:25:49.223Z,100842.50
2023-01-06T21:28:19.513Z,100839.06
2023-01-06T21:30:48.809Z,100833.91
2023-01-06T21:33:17.249Z,100839.53
2023-01-06T21:35:46.037Z,100841.66
2023-01-06T21:38:14.155Z,100851.75
2023-01-06T21:40:43.926Z,100855.66
2023-01-06T21:43:11.148Z,100856.06
2023-01-06T21:45:43.898Z,100850.91
2023-01-06T21:48:13.347Z,100855.44
2023-01-06T21:50:45.120Z,100839.66
2023-01-06T21:53:14.857Z,100846.03
2023-01-06T21:55:44.405Z,100844.56
2023-01-06T21:58:12.531Z,100840.69
2023-01-06T22:00:40.711Z,100838.22
2023-01-06T22:03:09.159Z,100839.59
2023-01-06T22:05:37.419Z,100834.69
2023-01-06T22:08:18.702Z,100828.94
2023-01-06T22:10:48.617Z,100836.81
2023-01-06T22:13:20.563Z,100828.50
2023-01-06T22:15:52.032Z,100829.09
2023-01-06T22:18:20.223Z,100833.16
2023-01-06T22:20:48.457Z,100828.22
2023-01-06T22:23:20.173Z,100829.56
2023-01-06T22:25:51.394Z,100827.38
2023-01-06T22:28:19.675Z,100834.25
2023-01-06T22:30:48.104Z,100828.22
2023-01-06T22:33:18.072Z,100834.13
2023-01-06T22:35:46.802Z,100826.50
2023-01-06T22:38:17.765Z,100837.53
2023-01-06T22:40:49.285Z,100843.28
2023-01-06T22:43:20.828Z,100846.34
2023-01-06T22:45:52.966Z,100843.16
2023-01-06T22:48:21.444Z,100835.44
2023-01-06T22:50:57.553Z,100834.84
2023-01-06T22:53:27.061Z,100834.44
2023-01-06T22:56:00.780Z,100828.31
2023-01-06T22:58:29.612Z,100827.81
2023-01-06T23:01:00.673Z,100834.28
2023-01-06T23:03:30.097Z,100829.25
2023-01-06T23:05:59.887Z,100835.84
2023-01-06T23:08:29.789Z,100824.47
2023-01-06T23:11:04.672Z,100827.50
2023-01-06T23:13:33.680Z,100834.00
2023-01-06T23:16:04.093Z,100828.84
2023-01-06T23:18:32.996Z,100827.31
2023-01-06T23:21:02.631Z,100824.88
2023-01-06T23:23:32.321Z,100832.31
2023-01-06T23:26:07.460Z,100828.25
2023-01-06T23:28:36.396Z,100828.50
2023-01-06T23:31:06.281Z,100828.72
2023-01-06T23:33:38.711Z,100828.97
2023-01-06T23:36:07.942Z,100831.03
2023-01-06T23:38:36.624Z,100833.94
2023-01-06T23:41:09.278Z,100829.75
2023-01-06T23:43:38.259Z,100828.16
2023-01-06T23:46:09.271Z,100832.91
2023-01-06T23:48:39.001Z,100843.06
2023-01-06T23:51:08.665Z,100840.47
2023-01-06T23:53:38.016Z,100836.16
2023-01-06T23:56:13.333Z,100831.00
2023-01-06T23:58:43.117Z,100837.63
